Flight Track Log - Related Links

Times and Time Zones

All times are in EDT time to prevent confusion due to time zone crossing. See the JZA8350 flight status page for this flight to view local times or setup timezone preferences in your user account.

Time Position Orientation Groundspeed Altitude Reporting Facility
EDT Latitude Longitude Course Direction KTS MPH feet Rate Location/Type
Sat 12:09:12 PM 49.1667 -123.1833 90° East 100 115 800  Level Vancouver Center
Sat 12:10:12 PM 49.1333 -123.2167 213° Southwest 140 161 1,900 1,250 Climbing Vancouver Center
Sat 12:11:12 PM 49.1000 -123.2333 198° South 140 161 3,300 1,250 Climbing Vancouver Center
Sat 12:12:12 PM 49.0667 -123.2167 162° South 160 184 4,400 1,100 Climbing Vancouver Center
Sat 12:13:00 PM 49.0667 -122.7276 90° East  Level FlightAware Approximate
Sat 12:13:12 PM 49.0500 -123.1333 107° East 160 184 5,500  Level Vancouver Center
Sat 12:14:00 PM 49.0667 -122.6068 90° East  Level FlightAware Approximate
Sat 12:14:12 PM 49.0500 -123.0667 90° East 180 207 6,400  Level Vancouver Center
Sat 12:15:12 PM 49.0667 -122.9833 73° East 190 219 7,400 950 Climbing Vancouver Center
Sat 12:16:12 PM 49.0667 -122.9000 90° East 200 230 8,300 1,000 Climbing Vancouver Center
Sat 12:17:12 PM 49.0833 -122.8333 69° East 200 230 9,400 1,000 Climbing Vancouver Center
Sat 12:18:12 PM 49.0833 -122.7333 90° East 200 230 10,300 950 Climbing Vancouver Center
Sat 12:19:12 PM 49.1000 -122.6500 73° East 210 242 11,300 950 Climbing Vancouver Center
Sat 12:20:12 PM 49.1167 -122.5500 76° East 210 242 12,200 900 Climbing Vancouver Center
Sat 12:21:12 PM 49.1167 -122.4667 90° East 210 242 13,100 800 Climbing Vancouver Center
Sat 12:22:12 PM 49.1333 -122.3667 76° East 220 253 13,800 800 Climbing Vancouver Center
Sat 12:23:12 PM 49.1500 -122.2667 76° East 230 265 14,700 800 Climbing Vancouver Center
Sat 12:24:12 PM 49.1667 -122.1833 73° East 230 265 15,400 700 Climbing Vancouver Center
Sat 12:25:12 PM 49.1833 -122.0833 76° East 230 265 16,100 650 Climbing Vancouver Center
Sat 12:26:12 PM 49.1667 -121.9833 104° East 240 276 16,700 600 Climbing Vancouver Center
Sat 12:27:12 PM 49.1833 -121.8833 76° East 240 276 17,300 600 Climbing Vancouver Center
Sat 12:28:12 PM 49.2000 -121.7833 76° East 240 276 17,900 500 Climbing Vancouver Center
Sat 12:29:12 PM 49.2167 -121.6833 76° East 250 288 18,300 450 Climbing Vancouver Center
Sat 12:30:12 PM 49.2333 -121.5833 76° East 250 288 18,800 350 Climbing Vancouver Center
Sat 12:31:12 PM 49.2500 -121.4667 78° East 260 299 19,000 100 Climbing Vancouver Center
Sat 12:32:12 PM 49.2667 -121.3500 78° East 280 322 19,000  Level Vancouver Center
Sat 12:33:12 PM 49.2833 -121.2167 79° East 290 334 19,000  Level Vancouver Center
Sat 12:34:12 PM 49.2833 -121.1167 90° East 300 345 19,000  Level Vancouver Center
Sat 12:35:12 PM 49.2833 -120.9500 90° East 300 345 19,000  Level Vancouver Center
Sat 12:36:12 PM 49.3000 -120.8333 78° East 310 357 19,000  Level Vancouver Center
Sat 12:37:12 PM 49.3000 -120.7000 90° East 300 345 19,000 -150 Level Vancouver Center
Sat 12:38:12 PM 49.3167 -120.5667 79° East 300 345 18,700 -700 Descending Vancouver Center
Sat 12:39:12 PM 49.3000 -120.4500 102° East 310 357 17,600 -1,200 Descending Vancouver Center
Sat 12:40:12 PM 49.3000 -120.3167 90° East 310 357 16,300 -1,250 Descending Vancouver Center
Sat 12:41:12 PM 49.3167 -120.1833 79° East 310 357 15,100 -1,300 Descending Vancouver Center
Sat 12:42:12 PM 49.3167 -120.0667 90° East 300 345 13,700 -1,650 Descending Vancouver Center
Sat 12:43:12 PM 49.3167 -119.9333 90° East 280 322 11,800 -2,050 Descending Vancouver Center
Sat 12:44:12 PM 49.3167 -119.8333 90° East 270 311 9,600 -2,050 Descending Vancouver Center
Sat 12:45:12 PM 49.3167 -119.7333 90° East 250 288 7,700 -1,900 Descending Vancouver Center
Sat 12:46:12 PM 49.3167 -119.6167 90° East 240 276 5,800 -1,900 Descending Vancouver Center
Sat 12:48:00 PM 49.4392 -119.6046 North  Level Estimated
Sat 12:55:00 PM 49.4631 -119.6022 North  Level Estimated
Sat 12:56:00 PM 49.4631 -119.6022 198° South  Level Estimated

Login

Don't have an account? Register now (free) for customized features, flight alerts, and more!